createdAt,value
2019-04-10T00:01:01.580Z,26.73
2019-04-10T00:03:36.726Z,27.33
2019-04-10T00:06:04.749Z,26.07
2019-04-10T00:08:36.557Z,27.10
2019-04-10T00:11:06.581Z,30.20
2019-04-10T00:13:40.858Z,26.30
2019-04-10T00:16:15.802Z,26.80
2019-04-10T00:18:46.383Z,29.23
2019-04-10T00:21:17.523Z,27.73
2019-04-10T00:23:47.151Z,30.17
2019-04-10T00:26:22.231Z,25.80
2019-04-10T00:28:52.335Z,27.23
2019-04-10T00:31:24.592Z,27.60
2019-04-10T00:33:54.860Z,26.70
2019-04-10T00:36:31.134Z,26.13
2019-04-10T00:39:00.610Z,24.50
2019-04-10T00:41:30.359Z,23.57
2019-04-10T00:44:00.113Z,24.77
2019-04-10T00:46:32.558Z,23.70
2019-04-10T00:49:02.837Z,23.77
2019-04-10T00:51:33.158Z,25.23
2019-04-10T00:54:07.819Z,23.10
2019-04-10T00:56:39.401Z,23.33
2019-04-10T00:59:10.009Z,22.17
2019-04-10T01:01:40.249Z,23.03
2019-04-10T01:04:10.662Z,22.17
2019-04-10T01:06:41.684Z,22.13
2019-04-10T01:09:11.209Z,24.20
2019-04-10T01:11:41.466Z,23.90
2019-04-10T01:14:11.720Z,22.73
2019-04-10T01:16:41.795Z,20.13
2019-04-10T01:19:12.008Z,23.20
2019-04-10T01:21:42.540Z,21.73
2019-04-10T01:24:19.625Z,22.03
2019-04-10T01:26:49.674Z,22.63
2019-04-10T01:29:19.699Z,22.97
2019-04-10T01:31:49.700Z,21.43
2019-04-10T01:34:21.091Z,21.37
2019-04-10T01:36:52.337Z,18.67
2019-04-10T01:39:30.545Z,20.07
2019-04-10T01:42:03.988Z,18.97
2019-04-10T01:44:33.691Z,19.20
2019-04-10T01:47:10.926Z,21.43
2019-04-10T01:49:42.430Z,18.53
2019-04-10T01:52:15.111Z,19.07
2019-04-10T01:54:47.227Z,20.10
2019-04-10T01:57:19.885Z,19.93
2019-04-10T01:59:49.953Z,19.93
2019-04-10T02:02:25.429Z,17.40
2019-04-10T02:04:55.210Z,20.23
2019-04-10T02:07:34.076Z,19.10
2019-04-10T02:10:09.968Z,20.60
2019-04-10T02:12:45.069Z,19.60
2019-04-10T02:15:17.803Z,20.83
2019-04-10T02:17:48.775Z,19.40
2019-04-10T02:20:18.981Z,17.93
2019-04-10T02:22:50.299Z,20.33
2019-04-10T02:25:21.964Z,20.80
2019-04-10T02:27:54.396Z,17.27
2019-04-10T02:30:26.197Z,23.53
2019-04-10T02:33:02.233Z,16.80
2019-04-10T02:35:31.884Z,19.20
2019-04-10T02:38:21.200Z,16.70
2019-04-10T02:40:37.864Z,20.03
2019-04-10T02:43:16.145Z,18.60
2019-04-10T02:45:46.987Z,21.33
2019-04-10T02:48:17.141Z,19.43
2019-04-10T02:50:47.162Z,18.83
2019-04-10T02:53:17.423Z,20.87
2019-04-10T02:55:49.330Z,18.20
2019-04-10T02:58:24.659Z,19.23
2019-04-10T03:00:59.073Z,19.07
2019-04-10T03:03:30.014Z,17.73
2019-04-10T03:06:02.599Z,16.87
2019-04-10T03:08:51.737Z,18.70
2019-04-10T03:11:11.694Z,17.67
2019-04-10T03:13:43.016Z,19.17
2019-04-10T03:16:14.039Z,21.93
2019-04-10T03:18:45.189Z,18.17
2019-04-10T03:21:16.439Z,20.07
2019-04-10T03:23:47.351Z,19.57
2019-04-10T03:26:18.928Z,19.83
2019-04-10T03:28:51.532Z,18.53
2019-04-10T03:31:24.623Z,18.43
2019-04-10T03:34:14.270Z,20.03
2019-04-10T03:36:48.260Z,20.43
2019-04-10T03:39:19.909Z,21.13
2019-04-10T03:41:49.091Z,22.10
2019-04-10T03:44:22.622Z,19.33
2019-04-10T03:46:53.866Z,20.80
2019-04-10T03:49:23.775Z,21.27
2019-04-10T03:51:56.496Z,21.57
2019-04-10T03:54:27.975Z,19.87
2019-04-10T03:56:58.280Z,20.37
2019-04-10T03:59:30.578Z,18.37
2019-04-10T04:02:00.781Z,20.73
2019-04-10T04:04:33.414Z,18.50
2019-04-10T04:07:03.098Z,20.10
2019-04-10T04:09:32.834Z,18.80
2019-04-10T04:12:02.643Z,18.73
2019-04-10T04:14:32.758Z,20.10
2019-04-10T04:17:02.477Z,22.57
2019-04-10T04:19:33.166Z,19.23
2019-04-10T04:22:03.943Z,19.57
2019-04-10T04:24:33.581Z,21.47
2019-04-10T04:27:03.258Z,20.30
2019-04-10T04:29:33.023Z,22.27
2019-04-10T04:32:05.618Z,26.70
2019-04-10T04:34:38.897Z,22.30
2019-04-10T04:37:13.185Z,23.07
2019-04-10T04:39:43.778Z,18.27
2019-04-10T04:42:16.987Z,24.63
2019-04-10T04:44:49.278Z,24.17
2019-04-10T04:47:20.668Z,21.17
2019-04-10T04:49:50.827Z,21.10
2019-04-10T04:52:21.371Z,26.50
2019-04-10T04:54:51.148Z,23.97
2019-04-10T04:57:21.131Z,25.50
2019-04-10T04:59:54.181Z,23.90
2019-04-10T05:02:24.248Z,24.57
2019-04-10T05:04:55.925Z,23.33
2019-04-10T05:07:25.448Z,23.57
2019-04-10T05:09:55.837Z,25.97
2019-04-10T05:12:27.672Z,27.43
2019-04-10T05:15:02.515Z,25.57
2019-04-10T05:17:39.316Z,25.67
2019-04-10T05:20:17.028Z,27.40
2019-04-10T05:22:46.690Z,27.67
2019-04-10T05:25:16.816Z,24.07
2019-04-10T05:27:47.085Z,25.93
2019-04-10T05:30:21.882Z,25.10
2019-04-10T05:32:55.673Z,27.03
2019-04-10T05:35:25.813Z,26.33
2019-04-10T05:38:01.274Z,24.93
2019-04-10T05:40:33.160Z,25.23
2019-04-10T05:43:03.789Z,24.80
2019-04-10T05:45:33.860Z,24.67
2019-04-10T05:48:04.946Z,24.40
2019-04-10T05:50:35.963Z,26.50
2019-04-10T05:53:06.094Z,25.87
2019-04-10T05:55:36.498Z,25.33
2019-04-10T05:58:05.874Z,21.07
2019-04-10T06:00:35.376Z,21.23
2019-04-10T06:03:14.236Z,25.73
2019-04-10T06:05:44.495Z,26.03
2019-04-10T06:08:14.251Z,23.80
2019-04-10T06:10:43.803Z,22.60
2019-04-10T06:13:19.896Z,24.33
2019-04-10T06:15:51.707Z,25.47
2019-04-10T06:18:21.534Z,26.43
2019-04-10T06:20:51.094Z,20.97
2019-04-10T06:23:20.602Z,21.40
2019-04-10T06:25:50.779Z,24.17
2019-04-10T06:28:21.361Z,25.93
2019-04-10T06:30:52.626Z,24.57
2019-04-10T06:33:22.262Z,25.20
2019-04-10T06:35:57.530Z,21.33
2019-04-10T06:38:30.818Z,22.77
2019-04-10T06:41:00.383Z,21.77
2019-04-10T06:43:30.950Z,20.07
2019-04-10T06:46:00.451Z,22.63
2019-04-10T06:48:30.531Z,21.70
2019-04-10T06:51:01.951Z,26.10
2019-04-10T06:53:31.596Z,22.47
2019-04-10T06:56:02.874Z,21.40
2019-04-10T06:58:32.666Z,24.00
2019-04-10T07:01:02.203Z,21.03
2019-04-10T07:03:45.693Z,21.23
2019-04-10T07:06:11.460Z,22.33
2019-04-10T07:08:38.077Z,21.43
2019-04-10T07:11:11.367Z,22.50
2019-04-10T07:13:40.473Z,20.80
2019-04-10T07:16:11.254Z,21.07
2019-04-10T07:18:48.599Z,20.00
2019-04-10T07:21:16.755Z,17.63
2019-04-10T07:23:46.926Z,19.77
2019-04-10T07:26:25.579Z,20.20
2019-04-10T07:28:49.265Z,18.70
2019-04-10T07:31:19.363Z,18.77
2019-04-10T07:33:50.442Z,18.23
2019-04-10T07:36:20.351Z,21.27
2019-04-10T07:38:53.923Z,20.17
2019-04-10T07:41:24.015Z,17.17
2019-04-10T07:43:54.345Z,20.30
2019-04-10T07:46:23.955Z,17.73
2019-04-10T07:48:54.544Z,19.73
2019-04-10T07:51:24.169Z,20.60
2019-04-10T07:53:53.634Z,19.53
2019-04-10T07:56:23.102Z,18.07
2019-04-10T07:58:53.822Z,17.17
2019-04-10T08:01:24.263Z,17.30
2019-04-10T08:03:54.026Z,20.87
2019-04-10T08:06:24.160Z,20.87
2019-04-10T08:08:53.685Z,20.73
2019-04-10T08:11:23.998Z,19.70
2019-04-10T08:13:54.487Z,19.73
2019-04-10T08:16:25.321Z,20.47
2019-04-10T08:18:56.221Z,18.93
2019-04-10T08:21:25.510Z,21.33
2019-04-10T08:24:02.550Z,20.37
2019-04-10T08:26:32.527Z,17.53
2019-04-10T08:29:09.896Z,20.77
2019-04-10T08:31:39.862Z,18.17
2019-04-10T08:34:17.277Z,20.17
2019-04-10T08:36:47.825Z,18.07
2019-04-10T08:39:32.106Z,18.37
2019-04-10T08:41:48.687Z,17.07
2019-04-10T08:44:20.243Z,18.17
2019-04-10T08:46:50.395Z,17.47
2019-04-10T08:49:21.443Z,15.53
2019-04-10T08:51:52.928Z,24.20
2019-04-10T08:54:24.090Z,16.90
2019-04-10T08:56:54.726Z,19.83
2019-04-10T08:59:25.117Z,16.47
2019-04-10T09:01:55.757Z,17.83
2019-04-10T09:04:28.713Z,16.03
2019-04-10T09:07:01.295Z,18.73
2019-04-10T09:09:29.965Z,16.20
2019-04-10T09:11:59.808Z,16.47
2019-04-10T09:14:29.701Z,16.27
2019-04-10T09:16:59.211Z,16.03
2019-04-10T09:19:38.172Z,18.73
2019-04-10T09:22:10.556Z,16.53
2019-04-10T09:24:40.124Z,15.97
2019-04-10T09:27:09.617Z,15.73
2019-04-10T09:29:40.363Z,16.23
2019-04-10T09:32:11.108Z,14.53
2019-04-10T09:34:42.159Z,13.63
2019-04-10T09:37:11.651Z,16.60
2019-04-10T09:39:43.413Z,15.73
2019-04-10T09:42:13.016Z,15.03
2019-04-10T09:44:43.041Z,16.27
2019-04-10T09:47:16.395Z,16.87
2019-04-10T09:49:46.998Z,15.87
2019-04-10T09:52:18.714Z,15.30
2019-04-10T09:54:51.052Z,15.07
2019-04-10T09:57:20.389Z,14.87
2019-04-10T09:59:52.442Z,15.47
2019-04-10T10:02:23.220Z,15.23
2019-04-10T10:04:53.498Z,14.97
2019-04-10T10:07:46.979Z,16.57
2019-04-10T10:10:17.218Z,16.87
2019-04-10T10:12:46.943Z,16.30
2019-04-10T10:15:17.487Z,16.77
2019-04-10T10:17:48.701Z,17.70
2019-04-10T10:20:21.797Z,14.77
2019-04-10T10:22:57.783Z,16.07
2019-04-10T10:25:27.470Z,15.90
2019-04-10T10:27:58.492Z,16.47
2019-04-10T10:30:29.907Z,18.13
2019-04-10T10:33:03.658Z,15.47
2019-04-10T10:35:41.282Z,15.73
2019-04-10T10:38:11.264Z,17.50
2019-04-10T10:40:41.637Z,16.70
2019-04-10T10:43:11.977Z,17.80
2019-04-10T10:45:43.005Z,18.37
2019-04-10T10:48:12.152Z,18.67
2019-04-10T10:50:42.173Z,17.37
2019-04-10T10:53:12.932Z,17.43
2019-04-10T10:55:42.439Z,18.03
2019-04-10T10:58:13.492Z,16.17
2019-04-10T11:00:44.281Z,17.00
2019-04-10T11:03:16.189Z,20.67
2019-04-10T11:05:46.482Z,16.63
2019-04-10T11:08:16.015Z,16.73
2019-04-10T11:10:49.119Z,13.63
2019-04-10T11:13:16.701Z,15.67
2019-04-10T11:15:46.122Z,14.27
2019-04-10T11:18:16.014Z,18.30
2019-04-10T11:20:45.235Z,15.80
2019-04-10T11:23:14.573Z,17.33
2019-04-10T11:25:46.387Z,16.80
2019-04-10T11:28:16.279Z,16.27
2019-04-10T11:30:47.278Z,15.70
2019-04-10T11:33:17.625Z,15.70
2019-04-10T11:35:51.397Z,19.17
2019-04-10T11:38:25.656Z,16.33
2019-04-10T11:40:59.940Z,14.93
2019-04-10T11:43:30.217Z,18.80
2019-04-10T11:46:02.587Z,17.43
2019-04-10T11:48:32.230Z,17.50
2019-04-10T11:51:06.532Z,19.70
2019-04-10T11:53:41.756Z,15.83
2019-04-10T11:56:13.044Z,16.57
2019-04-10T12:01:14.033Z,16.03
2019-04-10T12:03:50.430Z,23.33
2019-04-10T12:06:20.761Z,17.50
2019-04-10T12:09:13.655Z,15.83
2019-04-10T12:11:23.012Z,18.77
2019-04-10T12:13:52.224Z,16.00
2019-04-10T12:16:23.074Z,13.50
2019-04-10T12:18:55.845Z,16.27
2019-04-10T12:21:27.578Z,14.97
2019-04-10T12:23:58.873Z,16.40
2019-04-10T12:26:28.884Z,16.37
2019-04-10T12:29:00.894Z,17.43
2019-04-10T12:31:30.891Z,18.30
2019-04-10T12:34:01.853Z,16.13
2019-04-10T12:36:34.355Z,18.00
2019-04-10T12:39:07.902Z,15.20
2019-04-10T12:41:39.429Z,16.57
2019-04-10T12:44:13.613Z,17.43
2019-04-10T12:46:46.408Z,16.17
2019-04-10T12:49:15.719Z,16.63
2019-04-10T12:51:45.823Z,19.17
2019-04-10T12:54:17.586Z,17.83
2019-04-10T12:56:48.745Z,19.73
2019-04-10T12:59:25.695Z,16.50
2019-04-10T13:01:57.368Z,16.27
2019-04-10T13:04:30.260Z,19.83
2019-04-10T13:07:00.880Z,17.73
2019-04-10T13:09:31.882Z,16.60
2019-04-10T13:12:04.891Z,20.10
2019-04-10T13:14:34.883Z,16.03
2019-04-10T13:17:04.745Z,17.00
2019-04-10T13:19:39.600Z,16.57
2019-04-10T13:22:11.670Z,17.00
2019-04-10T13:24:43.784Z,16.27
2019-04-10T13:27:19.006Z,17.07
2019-04-10T13:29:48.837Z,16.23
2019-04-10T13:32:18.299Z,17.27
2019-04-10T13:34:49.098Z,15.07
2019-04-10T13:37:22.607Z,18.30
2019-04-10T13:39:52.819Z,18.40
2019-04-10T13:42:34.344Z,16.57
2019-04-10T13:45:04.631Z,19.07
2019-04-10T13:47:36.650Z,18.00
2019-04-10T13:50:08.601Z,17.37
2019-04-10T13:52:40.562Z,19.73
2019-04-10T13:55:13.122Z,18.73
2019-04-10T13:57:46.542Z,19.30
2019-04-10T14:00:28.240Z,19.10
2019-04-10T14:02:58.615Z,17.07
2019-04-10T14:05:31.924Z,17.53
2019-04-10T14:08:02.023Z,16.23
2019-04-10T14:10:33.106Z,16.70
2019-04-10T14:13:03.223Z,16.60
2019-04-10T14:15:35.906Z,17.40
2019-04-10T14:18:06.553Z,14.33
2019-04-10T14:20:36.130Z,14.93
2019-04-10T14:23:23.484Z,17.63
2019-04-10T14:25:58.836Z,14.87
2019-04-10T14:28:29.147Z,15.10
2019-04-10T14:31:05.783Z,15.27
2019-04-10T14:33:35.820Z,14.67
2019-04-10T14:36:07.578Z,13.13
2019-04-10T14:38:41.174Z,16.97
2019-04-10T14:41:20.027Z,13.80
2019-04-10T14:43:50.133Z,16.77
2019-04-10T14:46:20.675Z,12.73
2019-04-10T14:48:52.291Z,13.93
2019-04-10T14:51:24.425Z,14.70
2019-04-10T14:53:55.315Z,15.13
2019-04-10T14:56:28.839Z,14.53
2019-04-10T14:58:59.600Z,13.97
2019-04-10T15:01:32.026Z,15.10
2019-04-10T15:04:03.014Z,16.23
2019-04-10T15:06:33.382Z,14.40
2019-04-10T15:09:04.143Z,16.43
2019-04-10T15:11:33.577Z,13.97
2019-04-10T15:14:05.511Z,13.63
2019-04-10T15:16:36.900Z,15.90
2019-04-10T15:19:06.583Z,15.93
2019-04-10T15:21:36.661Z,12.97
2019-04-10T15:24:07.343Z,13.90
2019-04-10T15:26:40.751Z,14.20
2019-04-10T15:29:12.219Z,13.70
2019-04-10T15:31:41.845Z,14.03
2019-04-10T15:34:11.951Z,15.23
2019-04-10T15:36:46.436Z,12.27
2019-04-10T15:39:16.890Z,13.30
2019-04-10T15:41:46.104Z,13.03
2019-04-10T15:44:16.646Z,11.87
2019-04-10T15:46:47.356Z,17.67
2019-04-10T15:49:17.786Z,11.90
2019-04-10T15:51:49.756Z,13.00
2019-04-10T15:54:24.144Z,12.27
2019-04-10T15:56:54.177Z,11.73
2019-04-10T15:59:25.371Z,14.40
2019-04-10T16:01:55.287Z,12.23
2019-04-10T16:04:25.525Z,12.43
2019-04-10T16:06:56.017Z,12.20
2019-04-10T16:09:28.088Z,14.30
2019-04-10T16:12:18.604Z,12.13
2019-04-10T16:14:55.062Z,12.23
2019-04-10T16:17:41.932Z,11.57
2019-04-10T16:20:33.616Z,11.80
2019-04-10T16:23:28.900Z,11.73
2019-04-10T16:25:58.628Z,14.37
2019-04-10T16:28:29.421Z,11.73
2019-04-10T16:31:01.328Z,13.43
2019-04-10T16:33:32.031Z,12.70
2019-04-10T16:36:05.250Z,12.67
2019-04-10T16:38:36.375Z,12.17
2019-04-10T16:41:05.800Z,11.47
2019-04-10T16:43:36.264Z,12.57
2019-04-10T16:46:07.024Z,14.47
2019-04-10T16:48:38.364Z,13.17
2019-04-10T16:51:07.996Z,10.80
2019-04-10T16:53:41.252Z,10.73
2019-04-10T16:56:11.901Z,11.57
2019-04-10T16:58:42.489Z,13.20
2019-04-10T17:01:18.188Z,12.17
2019-04-10T17:03:47.748Z,12.50
2019-04-10T17:06:30.340Z,12.80
2019-04-10T17:09:00.665Z,11.43
2019-04-10T17:11:33.414Z,13.57
2019-04-10T17:14:04.819Z,14.13
2019-04-10T17:16:35.749Z,12.93
2019-04-10T17:19:09.900Z,12.03
2019-04-10T17:21:42.600Z,13.63
2019-04-10T17:24:13.284Z,14.83
2019-04-10T17:26:43.428Z,13.40
2019-04-10T17:29:16.702Z,12.43
2019-04-10T17:31:47.250Z,15.47
2019-04-10T17:34:16.989Z,13.67
2019-04-10T17:36:47.339Z,12.23
2019-04-10T17:39:19.745Z,14.13
2019-04-10T17:41:56.073Z,11.80
2019-04-10T17:44:26.484Z,13.30
2019-04-10T17:46:55.763Z,16.63
2019-04-10T17:49:25.638Z,13.63
2019-04-10T17:51:54.861Z,12.57
2019-04-10T17:54:29.851Z,15.83
2019-04-10T17:57:00.338Z,12.57
2019-04-10T17:59:30.598Z,13.43
2019-04-10T18:02:02.200Z,15.80
2019-04-10T18:04:33.898Z,14.73
2019-04-10T18:07:05.890Z,17.07
2019-04-10T18:09:38.842Z,14.83
2019-04-10T18:12:10.260Z,13.90
2019-04-10T18:14:42.454Z,14.73
2019-04-10T18:17:14.471Z,17.07
2019-04-10T18:19:46.189Z,14.60
2019-04-10T18:22:15.438Z,12.90
2019-04-10T18:24:45.421Z,13.20
2019-04-10T18:27:14.935Z,13.47
2019-04-10T18:29:45.526Z,16.57
2019-04-10T18:32:15.822Z,15.30
2019-04-10T18:34:46.474Z,14.83
2019-04-10T18:37:19.143Z,12.77
2019-04-10T18:39:57.046Z,12.27
2019-04-10T18:42:28.783Z,15.97
2019-04-10T18:44:59.439Z,12.23
2019-04-10T18:47:32.327Z,11.73
2019-04-10T18:50:22.377Z,12.00
2019-04-10T18:52:51.982Z,14.23
2019-04-10T18:55:23.243Z,14.07
2019-04-10T18:57:54.839Z,13.87
2019-04-10T19:00:43.455Z,12.57
2019-04-10T19:03:29.640Z,13.37
2019-04-10T19:06:02.597Z,12.57
2019-04-10T19:09:04.981Z,14.27
2019-04-10T19:11:26.796Z,12.73
2019-04-10T19:13:55.442Z,13.43
2019-04-10T19:16:27.649Z,15.33
2019-04-10T19:18:57.237Z,15.40
2019-04-10T19:21:27.995Z,14.40
2019-04-10T19:24:00.110Z,14.07
2019-04-10T19:26:33.917Z,14.10
2019-04-10T19:29:07.515Z,14.97
2019-04-10T19:31:38.781Z,16.37
2019-04-10T19:34:09.707Z,17.13
2019-04-10T19:36:42.134Z,16.03
2019-04-10T19:39:12.595Z,19.90
2019-04-10T19:41:46.992Z,15.63
2019-04-10T19:44:21.140Z,14.73
2019-04-10T19:46:50.989Z,15.47
2019-04-10T19:49:20.377Z,16.57
2019-04-10T19:51:51.831Z,18.73
2019-04-10T19:54:41.256Z,18.00
2019-04-10T19:57:13.476Z,19.07
2019-04-10T19:59:44.078Z,17.27
2019-04-10T20:02:15.052Z,15.83
2019-04-10T20:04:45.715Z,16.63
2019-04-10T20:07:16.574Z,16.30
2019-04-10T20:09:46.467Z,17.97
2019-04-10T20:12:18.212Z,18.13
2019-04-10T20:14:51.026Z,17.20
2019-04-10T20:17:24.057Z,18.57
2019-04-10T20:19:57.170Z,16.53
2019-04-10T20:22:30.706Z,15.70
2019-04-10T20:25:02.218Z,18.17
2019-04-10T20:27:32.041Z,16.03
2019-04-10T20:30:01.945Z,17.93
2019-04-10T20:32:32.324Z,18.17
2019-04-10T20:35:02.363Z,18.70
2019-04-10T20:37:39.960Z,17.43
2019-04-10T20:40:11.924Z,15.97
2019-04-10T20:42:43.203Z,17.67
2019-04-10T20:45:14.220Z,17.43
2019-04-10T20:47:44.650Z,20.57
2019-04-10T20:50:15.418Z,17.73
2019-04-10T20:52:47.251Z,18.10
2019-04-10T20:55:17.566Z,20.10
2019-04-10T20:57:49.989Z,21.23
2019-04-10T21:00:30.121Z,22.57
2019-04-10T21:03:01.469Z,17.47
2019-04-10T21:05:33.752Z,20.30
2019-04-10T21:08:06.569Z,18.60
2019-04-10T21:10:38.734Z,17.57
2019-04-10T21:13:08.693Z,19.10
2019-04-10T21:15:42.216Z,20.60
2019-04-10T21:18:34.269Z,16.97
2019-04-10T21:21:03.954Z,18.13
2019-04-10T21:23:34.288Z,23.33
2019-04-10T21:26:06.058Z,22.43
2019-04-10T21:28:48.334Z,19.47
2019-04-10T21:31:43.307Z,21.63
2019-04-10T21:34:30.439Z,18.90
2019-04-10T21:37:08.408Z,21.93
2019-04-10T21:39:38.262Z,18.17
2019-04-10T21:42:18.607Z,20.03
2019-04-10T21:44:45.017Z,19.03
2019-04-10T21:47:14.441Z,20.00
2019-04-10T21:49:46.276Z,19.03
2019-04-10T21:52:16.635Z,23.17
2019-04-10T21:54:51.059Z,18.90
2019-04-10T21:57:18.108Z,17.10
2019-04-10T21:59:47.602Z,19.40
2019-04-10T22:02:19.886Z,17.17
2019-04-10T22:04:49.817Z,19.43
2019-04-10T22:07:48.688Z,19.13
2019-04-10T22:10:48.400Z,20.20
2019-04-10T22:13:20.504Z,17.53
2019-04-10T22:15:53.641Z,21.80
2019-04-10T22:18:23.358Z,16.97
2019-04-10T22:20:54.585Z,19.17
2019-04-10T22:23:27.232Z,18.60
2019-04-10T22:25:56.804Z,17.30
2019-04-10T22:28:26.432Z,20.97
2019-04-10T22:31:18.133Z,17.70
2019-04-10T22:33:47.518Z,19.17
2019-04-10T22:36:24.845Z,17.07
2019-04-10T22:39:04.784Z,19.83
2019-04-10T22:41:38.527Z,18.10
2019-04-10T22:44:08.244Z,16.53
2019-04-10T22:46:42.495Z,17.30
2019-04-10T22:49:12.429Z,16.17
2019-04-10T22:51:42.188Z,18.73
2019-04-10T22:54:13.068Z,17.93
2019-04-10T22:56:42.347Z,17.43
2019-04-10T22:59:12.119Z,17.77
2019-04-10T23:01:43.249Z,17.67
2019-04-10T23:04:14.801Z,15.80
2019-04-10T23:06:45.662Z,21.20
2019-04-10T23:09:15.928Z,17.30
2019-04-10T23:11:46.877Z,16.40
2019-04-10T23:14:16.923Z,19.30
2019-04-10T23:16:48.417Z,18.50
2019-04-10T23:19:18.334Z,18.63
2019-04-10T23:21:49.135Z,17.00
2019-04-10T23:24:21.274Z,15.77
2019-04-10T23:26:51.538Z,15.43
2019-04-10T23:29:22.269Z,16.87
2019-04-10T23:31:52.066Z,15.33
2019-04-10T23:34:23.528Z,14.50
2019-04-10T23:36:56.142Z,21.20
2019-04-10T23:39:26.366Z,16.03
2019-04-10T23:41:57.022Z,18.10
2019-04-10T23:44:27.012Z,16.97
2019-04-10T23:46:56.273Z,17.87
2019-04-10T23:49:28.271Z,15.77
2019-04-10T23:51:59.133Z,15.50
2019-04-10T23:54:29.543Z,16.57
2019-04-10T23:57:01.044Z,16.30
2019-04-10T23:59:32.984Z,18.70
